Time;durP1;ratioP1;P1;durP2;ratioP2;P2;SDS_P1;SDS_P2;PMS_P1;PMS_P2;Temp;Humidity;BMP_temperature;BMP_pressure;BME280_temperature;BME280_humidity;BME280_pressure;Samples;Min_cycle;Max_cycle;Signal;HPM_P1;HPM_P2
2021/12/22 00:00:47;;;;;;;54.47;32.85;;;;;;;;;;5025806;28;20486;-60
2021/12/22 00:03:12;;;;;;;54.88;33.10;;;;;;;;;;5032008;28;20029;-60
2021/12/22 00:05:43;;;;;;;61.95;35.17;;;;;;;;;;5032205;28;20456;-60
2021/12/22 00:08:09;;;;;;;51.65;30.27;;;;;;;;;;5034037;28;20568;-60
2021/12/22 00:10:34;;;;;;;52.05;32.85;;;;;;;;;;5017750;28;20065;-59
2021/12/22 00:12:59;;;;;;;56.80;34.55;;;;;;;;;;5027923;28;20052;-59
2021/12/22 00:15:25;;;;;;;46.28;32.60;;;;;;;;;;5025362;28;20502;-59
2021/12/22 00:17:50;;;;;;;49.55;30.38;;;;;;;;;;5014642;28;20026;-59
2021/12/22 00:20:15;;;;;;;50.87;32.37;;;;;;;;;;5013423;28;20042;-59
2021/12/22 00:22:40;;;;;;;47.10;27.98;;;;;;;;;;5025401;28;20502;-59
2021/12/22 00:25:06;;;;;;;50.67;31.23;;;;;;;;;;5032460;28;20133;-60
2021/12/22 00:27:31;;;;;;;49.05;31.17;;;;;;;;;;5032971;28;20032;-59
2021/12/22 00:29:56;;;;;;;43.70;31.60;;;;;;;;;;5023222;28;20030;-60
2021/12/22 00:32:22;;;;;;;49.45;29.50;;;;;;;;;;5022611;28;21009;-60
2021/12/22 00:34:52;;;;;;;53.80;28.42;;;;;;;;;;5018746;28;20125;-60
2021/12/22 00:37:18;;;;;;;53.85;30.17;;;;;;;;;;5017671;28;20151;-60
2021/12/22 00:39:44;;;;;;;49.58;28.40;;;;;;;;;;5024658;28;20167;-60
2021/12/22 00:42:10;;;;;;;55.67;31.92;;;;;;;;;;5019657;28;20060;-60
2021/12/22 00:44:35;;;;;;;51.80;30.85;;;;;;;;;;5032183;28;20069;-60
2021/12/22 00:47:01;;;;;;;46.17;28.48;;;;;;;;;;5033738;28;20056;-60
2021/12/22 00:49:26;;;;;;;45.50;29.80;;;;;;;;;;5026705;28;20042;-60
2021/12/22 00:51:51;;;;;;;45.10;26.95;;;;;;;;;;5017838;28;20130;-59
2021/12/22 00:54:16;;;;;;;49.97;28.43;;;;;;;;;;5013507;28;21133;-59
2021/12/22 00:56:41;;;;;;;37.25;26.23;;;;;;;;;;5013416;28;20496;-59
2021/12/22 00:59:06;;;;;;;49.97;30.53;;;;;;;;;;5013748;28;20120;-59
2021/12/22 01:01:32;;;;;;;40.33;26.88;;;;;;;;;;5031629;28;20436;-60
2021/12/22 01:03:57;;;;;;;47.43;27.40;;;;;;;;;;5011941;28;20421;-60
2021/12/22 01:06:22;;;;;;;44.23;26.30;;;;;;;;;;5025333;28;20986;-60
2021/12/22 01:08:48;;;;;;;52.00;27.60;;;;;;;;;;5033437;28;20519;-60
2021/12/22 01:11:13;;;;;;;53.15;32.00;;;;;;;;;;5012466;28;20046;-60
2021/12/22 01:13:38;;;;;;;47.25;27.60;;;;;;;;;;5030861;28;20363;-60
2021/12/22 01:16:04;;;;;;;45.85;28.02;;;;;;;;;;5031994;28;20103;-60
2021/12/22 01:18:32;;;;;;;52.65;28.92;;;;;;;;;;5030962;28;20396;-60
2021/12/22 01:21:17;;;;;;;50.13;28.08;;;;;;;;;;5031874;28;20038;-59
2021/12/22 01:24:10;;;;;;;49.72;28.25;;;;;;;;;;5014455;28;20058;-59
2021/12/22 01:26:34;;;;;;;51.22;29.52;;;;;;;;;;5011983;28;20042;-60
2021/12/22 01:29:00;;;;;;;50.90;27.42;;;;;;;;;;5031757;28;20036;-60
2021/12/22 01:31:26;;;;;;;44.95;26.15;;;;;;;;;;5025134;28;20025;-59
2021/12/22 01:33:51;;;;;;;47.22;28.58;;;;;;;;;;5013100;28;20022;-60
2021/12/22 01:36:16;;;;;;;44.35;26.75;;;;;;;;;;5011764;28;20091;-60
2021/12/22 01:38:42;;;;;;;44.40;25.50;;;;;;;;;;5031131;28;20101;-60
2021/12/22 01:41:07;;;;;;;46.53;27.30;;;;;;;;;;5031074;28;20443;-60
2021/12/22 01:43:32;;;;;;;47.53;28.97;;;;;;;;;;5020160;28;20366;-59
2021/12/22 01:51:10;;;;;;;46.78;26.73;;;;;;;;;;5026288;28;19920;-60
2021/12/22 01:53:39;;;;;;;59.47;30.10;;;;;;;;;;5014296;28;20381;-59
2021/12/22 01:58:50;;;;;;;49.15;27.33;;;;;;;;;;5028915;28;20155;-59
2021/12/22 02:01:16;;;;;;;45.92;28.67;;;;;;;;;;5011039;28;20563;-60
2021/12/22 02:03:42;;;;;;;50.63;28.23;;;;;;;;;;5029506;28;20451;-60
2021/12/22 02:06:08;;;;;;;50.83;28.63;;;;;;;;;;5031051;28;20037;-60
2021/12/22 02:08:34;;;;;;;47.50;27.15;;;;;;;;;;5015292;28;20535;-59
2021/12/22 02:10:59;;;;;;;60.33;32.05;;;;;;;;;;5011280;28;20115;-60
2021/12/22 02:13:30;;;;;;;53.10;30.13;;;;;;;;;;5028880;28;20035;-60
2021/12/22 02:15:55;;;;;;;47.85;27.48;;;;;;;;;;5030652;28;20460;-60
2021/12/22 02:18:21;;;;;;;37.65;24.80;;;;;;;;;;5031900;28;20036;-60
2021/12/22 02:20:48;;;;;;;47.30;27.73;;;;;;;;;;5029070;28;20033;-59
2021/12/22 02:23:13;;;;;;;54.95;28.55;;;;;;;;;;5029461;28;20112;-59
2021/12/22 02:25:46;;;;;;;49.05;28.45;;;;;;;;;;5030182;28;20125;-60
2021/12/22 02:28:18;;;;;;;54.83;27.40;;;;;;;;;;5031846;28;20439;-60
2021/12/22 02:30:44;;;;;;;55.80;28.20;;;;;;;;;;5028651;28;20029;-60
2021/12/22 02:33:22;;;;;;;49.83;25.75;;;;;;;;;;5028452;28;20396;-60
2021/12/22 02:36:38;;;;;;;50.23;27.00;;;;;;;;;;5030214;28;20047;-60
2021/12/22 02:38:40;;;;;;;56.50;30.17;;;;;;;;;;5028368;28;20539;-60
2021/12/22 02:41:08;;;;;;;51.38;29.63;;;;;;;;;;5028603;28;20030;-60
2021/12/22 02:43:34;;;;;;;49.97;29.83;;;;;;;;;;5029147;28;20052;-59
2021/12/22 02:46:00;;;;;;;53.63;28.00;;;;;;;;;;5030120;28;20041;-59
2021/12/22 02:48:30;;;;;;;48.08;26.95;;;;;;;;;;5031226;28;20384;-59
2021/12/22 02:50:57;;;;;;;56.85;29.10;;;;;;;;;;5022589;28;20048;-59
2021/12/22 02:53:27;;;;;;;50.85;27.73;;;;;;;;;;5026932;28;20032;-59
2021/12/22 02:56:01;;;;;;;47.38;26.23;;;;;;;;;;5025228;28;20045;-60
2021/12/22 03:04:02;;;;;;;55.60;28.42;;;;;;;;;;5009735;28;20468;-59
2021/12/22 03:06:41;;;;;;;46.08;28.30;;;;;;;;;;5030756;28;20021;-59
2021/12/22 03:09:17;;;;;;;48.25;27.27;;;;;;;;;;5029239;28;20378;-59
2021/12/22 03:11:42;;;;;;;50.92;28.65;;;;;;;;;;5027387;28;20050;-59
2021/12/22 03:14:07;;;;;;;51.47;25.98;;;;;;;;;;5029578;28;20522;-59
2021/12/22 03:16:32;;;;;;;38.45;24.38;;;;;;;;;;5030633;28;20021;-59
2021/12/22 03:18:58;;;;;;;49.90;30.25;;;;;;;;;;5029554;28;20067;-59
2021/12/22 03:21:23;;;;;;;44.70;23.65;;;;;;;;;;5028330;28;20407;-59
2021/12/22 03:23:50;;;;;;;47.55;28.45;;;;;;;;;;5022260;28;20465;-60
2021/12/22 03:26:17;;;;;;;51.13;27.88;;;;;;;;;;5009799;28;20061;-60
2021/12/22 03:28:43;;;;;;;54.78;28.58;;;;;;;;;;5011106;28;20032;-60
2021/12/22 03:31:08;;;;;;;46.97;26.65;;;;;;;;;;5022586;28;20392;-60
2021/12/22 03:33:33;;;;;;;53.75;26.77;;;;;;;;;;5027036;28;20033;-60
2021/12/22 03:35:59;;;;;;;53.10;30.10;;;;;;;;;;5029543;28;20128;-60
2021/12/22 03:38:24;;;;;;;51.30;28.73;;;;;;;;;;5030686;28;20020;-60
2021/12/22 03:40:49;;;;;;;45.53;27.08;;;;;;;;;;5028877;28;20132;-60
2021/12/22 03:43:14;;;;;;;47.30;26.10;;;;;;;;;;5027193;28;20025;-60
2021/12/22 03:45:39;;;;;;;53.55;29.75;;;;;;;;;;5029423;28;20863;-60
2021/12/22 03:48:04;;;;;;;50.60;29.87;;;;;;;;;;5030823;28;20456;-60
2021/12/22 03:50:30;;;;;;;45.28;28.83;;;;;;;;;;5029178;28;20460;-60
2021/12/22 03:52:55;;;;;;;50.30;26.83;;;;;;;;;;5027174;28;20022;-60
2021/12/22 03:55:20;;;;;;;55.63;27.92;;;;;;;;;;5029113;28;20045;-60
2021/12/22 03:57:46;;;;;;;53.00;28.40;;;;;;;;;;5025893;28;20440;-59
2021/12/22 04:00:12;;;;;;;42.25;25.55;;;;;;;;;;5009551;28;20452;-60
2021/12/22 04:02:37;;;;;;;47.72;28.60;;;;;;;;;;5013123;28;20030;-60
2021/12/22 04:05:03;;;;;;;43.88;24.83;;;;;;;;;;5009602;28;20212;-60
2021/12/22 04:07:28;;;;;;;46.53;26.77;;;;;;;;;;5010774;28;20100;-60
2021/12/22 04:09:53;;;;;;;54.70;28.88;;;;;;;;;;5017469;28;20083;-60
2021/12/22 04:12:18;;;;;;;48.15;26.10;;;;;;;;;;5025416;28;20029;-60
2021/12/22 04:14:44;;;;;;;45.80;27.77;;;;;;;;;;5028996;28;20605;-60
2021/12/22 04:17:09;;;;;;;51.97;26.25;;;;;;;;;;5018482;28;20040;-60
2021/12/22 04:19:34;;;;;;;52.43;27.50;;;;;;;;;;5013141;28;20551;-60
2021/12/22 04:21:59;;;;;;;40.35;27.33;;;;;;;;;;5022167;28;20793;-60
2021/12/22 04:24:24;;;;;;;50.25;27.05;;;;;;;;;;5012451;28;20037;-60
2021/12/22 04:26:52;;;;;;;42.40;25.47;;;;;;;;;;5014770;28;20462;-60
2021/12/22 04:29:18;;;;;;;47.97;28.30;;;;;;;;;;5013189;28;20460;-60
2021/12/22 04:31:43;;;;;;;54.28;27.75;;;;;;;;;;5021323;28;20017;-60
2021/12/22 04:34:08;;;;;;;53.75;26.05;;;;;;;;;;5023201;28;20030;-60
2021/12/22 04:36:34;;;;;;;45.90;25.40;;;;;;;;;;5021745;28;20045;-60
2021/12/22 04:38:59;;;;;;;43.65;27.23;;;;;;;;;;5021814;28;20017;-60
2021/12/22 04:41:25;;;;;;;38.50;25.60;;;;;;;;;;5022824;28;20021;-60
2021/12/22 04:43:50;;;;;;;40.10;23.48;;;;;;;;;;5021935;28;20014;-60
2021/12/22 04:46:16;;;;;;;43.17;25.63;;;;;;;;;;5022641;28;20117;-60
2021/12/22 04:48:41;;;;;;;38.08;21.58;;;;;;;;;;5020192;28;20014;-61
2021/12/22 04:51:13;;;;;;;43.67;24.83;;;;;;;;;;5022516;28;20061;-60
2021/12/22 04:53:49;;;;;;;37.55;23.95;;;;;;;;;;5022451;28;20428;-60
2021/12/22 04:56:14;;;;;;;52.35;26.85;;;;;;;;;;5020714;28;20513;-60
2021/12/22 04:58:39;;;;;;;45.42;26.02;;;;;;;;;;5023557;28;20045;-60
2021/12/22 05:01:05;;;;;;;42.65;26.50;;;;;;;;;;5020574;28;20068;-60
2021/12/22 05:03:30;;;;;;;40.37;23.57;;;;;;;;;;5020608;28;20057;-60
2021/12/22 05:05:55;;;;;;;39.58;24.33;;;;;;;;;;5022745;28;20453;-60
2021/12/22 05:08:20;;;;;;;40.35;24.77;;;;;;;;;;5021422;28;20440;-60
2021/12/22 05:10:45;;;;;;;41.20;24.50;;;;;;;;;;5019663;28;20457;-60
2021/12/22 05:13:10;;;;;;;42.60;25.63;;;;;;;;;;5023999;28;20453;-58
2021/12/22 05:15:38;;;;;;;39.88;23.35;;;;;;;;;;5019744;28;20530;-56
2021/12/22 05:18:21;;;;;;;38.55;26.00;;;;;;;;;;5023413;28;20086;-59
2021/12/22 05:20:48;;;;;;;31.33;20.85;;;;;;;;;;5019856;28;20041;-58
2021/12/22 05:23:13;;;;;;;36.97;24.25;;;;;;;;;;5018979;28;20022;-58
2021/12/22 05:25:38;;;;;;;39.25;23.20;;;;;;;;;;5021843;28;20037;-58
2021/12/22 05:28:03;;;;;;;36.15;23.58;;;;;;;;;;5022355;28;20528;-58
2021/12/22 05:30:28;;;;;;;34.65;23.52;;;;;;;;;;5018515;28;20033;-58
2021/12/22 05:32:55;;;;;;;42.78;23.63;;;;;;;;;;5021195;28;20025;-58
2021/12/22 05:35:20;;;;;;;40.53;24.45;;;;;;;;;;5020745;28;20042;-58
2021/12/22 05:37:45;;;;;;;39.08;25.67;;;;;;;;;;5021734;28;20050;-58
2021/12/22 05:40:10;;;;;;;33.22;21.33;;;;;;;;;;5023675;28;20080;-58
2021/12/22 05:42:36;;;;;;;46.78;27.05;;;;;;;;;;5016124;28;20476;-58
2021/12/22 05:45:01;;;;;;;31.88;21.40;;;;;;;;;;5029587;28;20041;-58
2021/12/22 05:47:27;;;;;;;35.35;22.23;;;;;;;;;;5028975;28;20036;-57
2021/12/22 05:49:52;;;;;;;42.67;23.42;;;;;;;;;;5030798;28;20029;-58
2021/12/22 05:52:17;;;;;;;36.45;22.80;;;;;;;;;;5032616;28;20044;-58
2021/12/22 05:54:42;;;;;;;39.25;22.70;;;;;;;;;;5031078;28;20174;-57
2021/12/22 05:57:08;;;;;;;43.60;25.77;;;;;;;;;;5032589;28;20020;-58
2021/12/22 05:59:33;;;;;;;32.83;21.80;;;;;;;;;;5031322;28;20052;-57
2021/12/22 06:01:58;;;;;;;36.50;25.00;;;;;;;;;;5030950;28;20034;-58
2021/12/22 06:04:23;;;;;;;36.63;23.15;;;;;;;;;;5032080;28;20416;-58
2021/12/22 06:06:48;;;;;;;35.33;22.90;;;;;;;;;;5030626;28;20125;-58
2021/12/22 06:09:13;;;;;;;38.72;25.30;;;;;;;;;;5031839;28;20420;-57
2021/12/22 06:11:39;;;;;;;35.80;23.45;;;;;;;;;;5030479;28;20444;-57
2021/12/22 06:14:04;;;;;;;44.65;25.83;;;;;;;;;;5032104;28;20428;-57
2021/12/22 06:16:30;;;;;;;35.53;22.43;;;;;;;;;;5030418;28;20506;-57
2021/12/22 06:18:58;;;;;;;35.33;22.50;;;;;;;;;;5031804;28;20454;-57
2021/12/22 06:21:23;;;;;;;26.23;19.08;;;;;;;;;;5030390;28;20060;-58
2021/12/22 06:23:48;;;;;;;39.50;23.60;;;;;;;;;;5031676;28;20045;-58
2021/12/22 06:26:13;;;;;;;33.67;22.17;;;;;;;;;;5030471;28;20029;-57
2021/12/22 06:28:39;;;;;;;34.28;23.15;;;;;;;;;;5031432;28;20485;-57
2021/12/22 06:31:04;;;;;;;37.70;24.88;;;;;;;;;;5029975;28;20044;-57
2021/12/22 06:33:29;;;;;;;32.97;23.55;;;;;;;;;;5031301;28;20021;-57
2021/12/22 06:35:54;;;;;;;31.50;20.85;;;;;;;;;;5030297;28;20064;-57
2021/12/22 06:38:19;;;;;;;36.67;23.00;;;;;;;;;;5031217;28;20021;-58
2021/12/22 06:40:45;;;;;;;38.47;21.08;;;;;;;;;;5028817;28;20362;-58
2021/12/22 06:43:10;;;;;;;33.10;22.80;;;;;;;;;;5031689;28;20393;-58
2021/12/22 06:45:35;;;;;;;34.58;20.80;;;;;;;;;;5029587;28;20543;-58
2021/12/22 06:48:00;;;;;;;32.92;23.35;;;;;;;;;;5031300;28;20428;-57
2021/12/22 06:50:26;;;;;;;41.75;24.10;;;;;;;;;;5029785;28;20037;-57
2021/12/22 06:52:51;;;;;;;31.42;22.67;;;;;;;;;;5031270;28;20025;-57
2021/12/22 06:55:16;;;;;;;37.33;23.33;;;;;;;;;;5029835;28;20040;-57
2021/12/22 06:57:42;;;;;;;39.22;23.23;;;;;;;;;;5031108;28;20424;-57
2021/12/22 07:00:08;;;;;;;34.58;22.55;;;;;;;;;;5029453;28;20540;-57
2021/12/22 07:02:36;;;;;;;34.13;21.42;;;;;;;;;;5031144;28;20014;-57
2021/12/22 07:05:03;;;;;;;41.33;24.48;;;;;;;;;;5030091;28;20627;-57
2021/12/22 07:07:28;;;;;;;36.38;24.00;;;;;;;;;;5030921;28;20080;-57
2021/12/22 07:09:53;;;;;;;33.42;21.42;;;;;;;;;;5029789;28;20033;-57
2021/12/22 07:12:18;;;;;;;40.00;22.25;;;;;;;;;;5031332;28;20947;-58
2021/12/22 07:14:43;;;;;;;35.38;23.40;;;;;;;;;;5029208;28;20518;-55
2021/12/22 07:17:09;;;;;;;34.38;23.40;;;;;;;;;;5031271;28;20071;-54
2021/12/22 07:19:34;;;;;;;38.38;21.52;;;;;;;;;;5029644;28;20021;-54
2021/12/22 07:22:00;;;;;;;30.30;20.98;;;;;;;;;;5030635;28;20022;-55
2021/12/22 07:24:25;;;;;;;43.95;26.30;;;;;;;;;;5029707;28;20033;-55
2021/12/22 07:26:50;;;;;;;30.10;19.10;;;;;;;;;;5031053;28;20047;-53
2021/12/22 07:29:15;;;;;;;35.70;21.23;;;;;;;;;;5029371;28;20037;-53
2021/12/22 07:31:40;;;;;;;30.25;20.23;;;;;;;;;;5030982;28;20556;-55
2021/12/22 07:34:28;;;;;;;34.13;21.80;;;;;;;;;;5029607;28;20424;-55
2021/12/22 07:37:00;;;;;;;33.72;21.83;;;;;;;;;;5030803;28;20104;-54
2021/12/22 07:39:25;;;;;;;31.63;21.30;;;;;;;;;;5029652;28;20026;-54
2021/12/22 07:41:50;;;;;;;31.10;22.48;;;;;;;;;;5031151;28;20025;-55
2021/12/22 07:44:16;;;;;;;36.78;22.88;;;;;;;;;;5029364;28;20452;-55
2021/12/22 07:46:41;;;;;;;42.25;22.42;;;;;;;;;;5031015;28;20017;-55
2021/12/22 07:49:06;;;;;;;27.57;18.73;;;;;;;;;;5029221;28;20093;-55
2021/12/22 07:51:31;;;;;;;27.33;18.10;;;;;;;;;;5031684;28;20967;-55
2021/12/22 07:53:56;;;;;;;31.40;18.83;;;;;;;;;;5033783;28;20502;-55
2021/12/22 07:56:22;;;;;;;27.33;20.23;;;;;;;;;;5034474;28;20033;-54
2021/12/22 07:58:47;;;;;;;25.23;18.15;;;;;;;;;;5034105;28;20046;-55
2021/12/22 08:01:12;;;;;;;33.60;20.20;;;;;;;;;;5033305;28;20088;-54
2021/12/22 08:03:38;;;;;;;26.87;18.63;;;;;;;;;;5034629;28;20495;-55
2021/12/22 08:06:03;;;;;;;29.73;19.65;;;;;;;;;;5032822;28;20502;-54
2021/12/22 08:08:28;;;;;;;26.17;18.20;;;;;;;;;;5034554;28;20029;-54
2021/12/22 08:10:53;;;;;;;28.57;19.07;;;;;;;;;;5033052;28;20479;-55
2021/12/22 08:13:19;;;;;;;30.08;21.27;;;;;;;;;;5034168;28;20430;-55
2021/12/22 08:15:44;;;;;;;24.33;17.50;;;;;;;;;;5023421;28;20128;-55
2021/12/22 08:18:10;;;;;;;35.10;20.13;;;;;;;;;;5025240;28;20067;-55
2021/12/22 08:20:35;;;;;;;29.25;18.27;;;;;;;;;;5032167;28;20116;-55
2021/12/22 08:23:00;;;;;;;30.40;17.92;;;;;;;;;;5034183;28;20068;-55
2021/12/22 08:25:25;;;;;;;29.53;18.53;;;;;;;;;;5032468;28;20045;-55
2021/12/22 08:27:51;;;;;;;28.05;19.60;;;;;;;;;;5034082;28;20842;-55
2021/12/22 08:30:17;;;;;;;28.83;18.73;;;;;;;;;;5032302;28;20036;-56
2021/12/22 08:32:42;;;;;;;62.90;29.25;;;;;;;;;;5033654;28;20033;-55
2021/12/22 08:35:09;;;;;;;33.33;22.40;;;;;;;;;;5032185;28;20527;-56
2021/12/22 08:40:19;;;;;;;30.23;20.77;;;;;;;;;;5032822;28;20044;-55
2021/12/22 08:42:45;;;;;;;29.27;21.90;;;;;;;;;;5033252;28;20104;-56
2021/12/22 08:45:11;;;;;;;24.77;19.15;;;;;;;;;;5032394;28;20037;-55
2021/12/22 08:47:36;;;;;;;51.03;31.13;;;;;;;;;;5033617;28;20446;-55
2021/12/22 08:50:02;;;;;;;53.22;29.85;;;;;;;;;;5031974;28;20041;-55
2021/12/22 08:52:27;;;;;;;38.25;21.88;;;;;;;;;;5033737;28;20067;-56
2021/12/22 08:54:52;;;;;;;46.22;27.90;;;;;;;;;;5032422;28;20033;-55
2021/12/22 08:57:17;;;;;;;24.90;20.30;;;;;;;;;;5033291;28;20013;-56
2021/12/22 08:59:43;;;;;;;28.37;20.30;;;;;;;;;;5031909;28;20802;-56
2021/12/22 09:02:08;;;;;;;43.70;25.05;;;;;;;;;;5033230;28;20427;-55
2021/12/22 09:04:33;;;;;;;55.40;29.45;;;;;;;;;;5032329;28;20029;-55
2021/12/22 09:06:58;;;;;;;80.22;41.97;;;;;;;;;;5031484;28;20044;-56
2021/12/22 09:09:23;;;;;;;83.65;43.53;;;;;;;;;;5032722;28;20032;-56
2021/12/22 09:11:49;;;;;;;23.30;17.85;;;;;;;;;;5031564;28;20037;-55
2021/12/22 09:14:15;;;;;;;30.95;20.40;;;;;;;;;;5033445;28;20013;-54
2021/12/22 09:16:40;;;;;;;47.75;27.77;;;;;;;;;;5031756;28;20067;-55
2021/12/22 09:19:06;;;;;;;37.97;23.25;;;;;;;;;;5033244;28;20022;-56
2021/12/22 09:21:32;;;;;;;36.38;22.27;;;;;;;;;;5031487;28;20037;-54
2021/12/22 09:23:57;;;;;;;32.80;20.77;;;;;;;;;;5033118;28;20024;-56
2021/12/22 09:26:22;;;;;;;27.57;20.87;;;;;;;;;;5031584;28;20029;-58
2021/12/22 09:28:48;;;;;;;32.88;22.38;;;;;;;;;;5033112;28;20822;-58
2021/12/22 09:31:14;;;;;;;29.77;21.40;;;;;;;;;;5031479;28;20133;-56
2021/12/22 09:33:39;;;;;;;34.55;22.52;;;;;;;;;;5032859;28;20013;-56
2021/12/22 09:36:06;;;;;;;25.17;20.70;;;;;;;;;;5031269;28;20080;-55
2021/12/22 09:38:31;;;;;;;30.83;22.90;;;;;;;;;;5032675;28;20485;-56
2021/12/22 09:40:56;;;;;;;28.48;22.75;;;;;;;;;;5031469;28;20037;-55
2021/12/22 09:43:21;;;;;;;26.40;19.13;;;;;;;;;;5032645;28;20049;-56
2021/12/22 09:45:52;;;;;;;30.23;21.02;;;;;;;;;;5031334;28;20040;-55
2021/12/22 09:48:28;;;;;;;33.08;23.45;;;;;;;;;;5033024;28;20045;-56
2021/12/22 09:52:16;;;;;;;30.17;23.77;;;;;;;;;;5031039;28;20432;-55
2021/12/22 09:53:43;;;;;;;29.85;21.05;;;;;;;;;;5032583;28;20469;-56
2021/12/22 09:56:08;;;;;;;30.30;20.40;;;;;;;;;;5030800;28;20038;-57
2021/12/22 09:58:36;;;;;;;37.70;22.48;;;;;;;;;;5032358;28;20164;-56
2021/12/22 10:01:01;;;;;;;35.60;24.45;;;;;;;;;;5030977;28;20030;-56
2021/12/22 10:03:26;;;;;;;35.63;25.43;;;;;;;;;;5032194;28;20384;-56
2021/12/22 10:05:52;;;;;;;36.13;21.20;;;;;;;;;;5030865;28;20990;-56
2021/12/22 10:08:19;;;;;;;27.92;20.48;;;;;;;;;;5032050;28;20021;-56
2021/12/22 10:10:47;;;;;;;27.85;20.15;;;;;;;;;;5030582;28;20125;-56
2021/12/22 10:13:14;;;;;;;31.63;20.52;;;;;;;;;;5032262;28;20022;-56
2021/12/22 10:15:40;;;;;;;25.40;18.98;;;;;;;;;;5030352;28;20116;-56
2021/12/22 10:18:11;;;;;;;31.67;20.17;;;;;;;;;;5032494;28;20060;-56
2021/12/22 10:20:36;;;;;;;31.42;19.35;;;;;;;;;;5030181;28;20404;-56
2021/12/22 10:23:02;;;;;;;29.17;21.20;;;;;;;;;;5032129;28;20104;-56
2021/12/22 10:25:29;;;;;;;29.63;19.02;;;;;;;;;;5030428;28;20041;-56
2021/12/22 10:28:04;;;;;;;30.92;22.48;;;;;;;;;;5031988;28;20117;-56
2021/12/22 10:30:36;;;;;;;29.08;17.77;;;;;;;;;;5030401;28;20042;-56
2021/12/22 10:33:07;;;;;;;27.15;19.48;;;;;;;;;;5031785;28;20029;-57
2021/12/22 10:35:34;;;;;;;34.22;19.73;;;;;;;;;;5030332;28;20056;-56
2021/12/22 10:37:59;;;;;;;25.20;20.33;;;;;;;;;;5032182;28;20017;-56
2021/12/22 10:40:30;;;;;;;35.63;22.45;;;;;;;;;;5030265;28;20033;-56
2021/12/22 10:42:56;;;;;;;35.95;21.33;;;;;;;;;;5031737;28;20013;-56
2021/12/22 10:45:22;;;;;;;27.65;20.02;;;;;;;;;;5030458;28;20041;-56
2021/12/22 10:50:33;;;;;;;33.50;21.48;;;;;;;;;;5023553;28;20112;-57
2021/12/22 10:52:59;;;;;;;27.80;18.90;;;;;;;;;;5021760;28;20125;-56
2021/12/22 10:55:25;;;;;;;26.90;19.23;;;;;;;;;;5026911;28;20124;-57
2021/12/22 10:57:50;;;;;;;28.17;22.63;;;;;;;;;;5031091;28;20445;-57
2021/12/22 11:00:16;;;;;;;32.55;18.60;;;;;;;;;;5029630;28;20050;-57
2021/12/22 11:02:50;;;;;;;30.85;21.45;;;;;;;;;;5031085;28;20498;-57
2021/12/22 11:05:28;;;;;;;30.10;18.08;;;;;;;;;;5029436;28;20061;-56
2021/12/22 11:07:54;;;;;;;29.13;22.27;;;;;;;;;;5031131;28;20026;-57
2021/12/22 11:10:26;;;;;;;26.92;19.55;;;;;;;;;;5029235;28;20044;-57
2021/12/22 11:13:02;;;;;;;36.50;21.20;;;;;;;;;;5031097;28;20584;-57
2021/12/22 11:15:27;;;;;;;26.73;19.15;;;;;;;;;;5029644;28;20041;-57
2021/12/22 11:17:52;;;;;;;27.67;20.10;;;;;;;;;;5031111;28;20028;-57
2021/12/22 11:20:21;;;;;;;32.30;21.97;;;;;;;;;;5029773;28;20040;-57
2021/12/22 11:22:54;;;;;;;31.38;20.40;;;;;;;;;;5031179;28;20419;-57
2021/12/22 11:25:22;;;;;;;25.95;18.25;;;;;;;;;;5029249;28;20076;-57
2021/12/22 11:27:51;;;;;;;29.20;20.83;;;;;;;;;;5024152;28;20547;-57
2021/12/22 11:30:16;;;;;;;;;;;;;;;;;;5033697;28;20539;-57
2021/12/22 11:32:41;;;;;;;26.83;18.67;;;;;;;;;;5036044;28;20376;-57
2021/12/22 11:35:08;;;;;;;28.90;20.08;;;;;;;;;;5019581;28;20038;-57
2021/12/22 11:37:33;;;;;;;27.95;18.80;;;;;;;;;;5010898;28;20057;-57
2021/12/22 11:39:59;;;;;;;30.58;21.50;;;;;;;;;;5009328;28;20524;-57
2021/12/22 11:42:30;;;;;;;32.33;21.10;;;;;;;;;;5010864;28;20025;-57
2021/12/22 11:44:58;;;;;;;33.65;19.40;;;;;;;;;;5018834;28;20105;-57
2021/12/22 11:47:24;;;;;;;21.98;17.75;;;;;;;;;;5030666;28;20026;-57
2021/12/22 11:49:57;;;;;;;28.88;20.42;;;;;;;;;;5029374;28;20511;-57
2021/12/22 11:52:39;;;;;;;31.50;20.27;;;;;;;;;;5031028;28;20087;-57
2021/12/22 11:55:18;;;;;;;29.10;22.15;;;;;;;;;;5028990;28;20061;-57
2021/12/22 11:57:43;;;;;;;;;;;;;;;;;;5031332;28;20029;-57
2021/12/22 12:00:28;;;;;;;43.58;20.00;;;;;;;;;;5029359;28;19921;-57
2021/12/22 12:02:54;;;;;;;31.67;19.02;;;;;;;;;;5030454;28;20021;-57
2021/12/22 12:05:22;;;;;;;34.33;23.42;;;;;;;;;;5029464;28;20513;-57
2021/12/22 12:07:50;;;;;;;32.55;22.38;;;;;;;;;;5030954;28;20060;-57
2021/12/22 12:10:34;;;;;;;33.35;22.83;;;;;;;;;;5028883;28;20041;-57
2021/12/22 12:13:06;;;;;;;26.52;20.02;;;;;;;;;;5030983;28;20071;-57
2021/12/22 12:15:58;;;;;;;30.90;19.58;;;;;;;;;;5028939;28;20389;-57
2021/12/22 12:21:44;;;;;;;27.10;19.23;;;;;;;;;;5029147;28;20084;-57
2021/12/22 12:24:28;;;;;;;33.38;21.77;;;;;;;;;;5030607;28;20022;-57
2021/12/22 12:26:53;;;;;;;31.27;20.45;;;;;;;;;;5050499;28;20029;-57
2021/12/22 12:29:39;;;;;;;30.30;21.10;;;;;;;;;;5045170;28;20032;-57
2021/12/22 12:32:04;;;;;;;28.40;19.33;;;;;;;;;;5030214;28;20459;-57
2021/12/22 12:34:30;;;;;;;28.23;20.33;;;;;;;;;;5029133;28;20042;-57
2021/12/22 12:36:55;;;;;;;30.27;18.67;;;;;;;;;;5030858;28;20006;-57
2021/12/22 12:39:39;;;;;;;27.70;22.07;;;;;;;;;;5031190;28;20025;-56
2021/12/22 12:42:04;;;;;;;27.83;19.70;;;;;;;;;;5032292;28;20455;-57
2021/12/22 12:44:30;;;;;;;22.50;18.53;;;;;;;;;;5032163;28;20503;-57
2021/12/22 12:46:55;;;;;;;33.22;20.25;;;;;;;;;;5033192;28;20435;-57
2021/12/22 12:49:20;;;;;;;28.52;22.58;;;;;;;;;;5032553;28;20029;-57
2021/12/22 12:51:47;;;;;;;25.33;18.33;;;;;;;;;;5033164;28;20048;-57
2021/12/22 12:54:18;;;;;;;27.50;18.90;;;;;;;;;;5032270;28;20048;-57
2021/12/22 12:56:59;;;;;;;32.80;22.65;;;;;;;;;;5033867;28;20030;-57
2021/12/22 12:59:37;;;;;;;32.30;21.65;;;;;;;;;;5031810;28;20124;-57
2021/12/22 13:02:02;;;;;;;30.98;22.63;;;;;;;;;;5033390;28;20575;-57
2021/12/22 13:04:35;;;;;;;28.00;19.15;;;;;;;;;;5032133;28;20113;-57
2021/12/22 13:07:00;;;;;;;30.50;20.20;;;;;;;;;;5033872;28;20064;-57
2021/12/22 13:09:25;;;;;;;25.90;21.55;;;;;;;;;;5031464;28;20065;-57
2021/12/22 13:12:04;;;;;;;31.88;20.92;;;;;;;;;;5033536;28;20072;-57
2021/12/22 13:17:17;;;;;;;18.60;14.52;;;;;;;;;;5033354;28;20028;-57
2021/12/22 13:19:43;;;;;;;33.85;20.05;;;;;;;;;;5031726;28;20033;-57
2021/12/22 13:22:34;;;;;;;23.85;18.63;;;;;;;;;;5033574;28;20460;-57
2021/12/22 13:25:12;;;;;;;34.08;20.40;;;;;;;;;;5028423;28;20588;-57
2021/12/22 13:27:38;;;;;;;28.05;19.60;;;;;;;;;;5032922;28;20033;-57
2021/12/22 13:30:07;;;;;;;26.55;19.65;;;;;;;;;;5031857;28;20471;-57
2021/12/22 13:32:33;;;;;;;24.13;18.75;;;;;;;;;;5033000;28;20025;-57
2021/12/22 13:34:59;;;;;;;26.83;20.15;;;;;;;;;;5031682;28;20072;-57
2021/12/22 13:37:25;;;;;;;29.77;21.45;;;;;;;;;;5032894;28;20013;-57
2021/12/22 13:39:50;;;;;;;26.65;18.95;;;;;;;;;;5031035;28;20033;-57
2021/12/22 13:42:15;;;;;;;24.27;18.47;;;;;;;;;;5033078;28;20020;-57
2021/12/22 13:44:40;;;;;;;28.08;20.23;;;;;;;;;;5031404;28;20903;-57
2021/12/22 13:47:05;;;;;;;25.25;19.98;;;;;;;;;;5032639;28;20024;-57
2021/12/22 13:49:31;;;;;;;29.87;18.67;;;;;;;;;;5030550;28;20040;-57
2021/12/22 13:51:56;;;;;;;28.80;20.85;;;;;;;;;;5029514;28;20535;-57
2021/12/22 13:54:23;;;;;;;25.25;19.45;;;;;;;;;;5028988;28;20120;-56
2021/12/22 13:56:49;;;;;;;24.00;20.27;;;;;;;;;;5032823;28;20018;-57
2021/12/22 13:59:15;;;;;;;36.65;21.45;;;;;;;;;;5031144;28;20070;-56
2021/12/22 14:01:41;;;;;;;27.70;20.25;;;;;;;;;;5031847;28;20053;-57
2021/12/22 14:04:07;;;;;;;28.10;19.73;;;;;;;;;;5030689;28;20014;-56
2021/12/22 14:06:51;;;;;;;30.40;18.57;;;;;;;;;;5032158;28;20369;-57
2021/12/22 14:09:19;;;;;;;32.50;21.85;;;;;;;;;;5030503;28;20471;-57
2021/12/22 14:11:45;;;;;;;25.15;17.92;;;;;;;;;;5032514;28;20021;-57
2021/12/22 14:14:23;;;;;;;28.33;19.13;;;;;;;;;;5031011;28;20108;-57
2021/12/22 14:16:49;;;;;;;28.48;17.98;;;;;;;;;;5032199;28;20021;-56
2021/12/22 14:19:15;;;;;;;30.98;19.33;;;;;;;;;;5030890;28;20036;-56
2021/12/22 14:21:40;;;;;;;26.13;19.33;;;;;;;;;;5031770;28;20043;-56
2021/12/22 14:24:05;;;;;;;29.53;20.73;;;;;;;;;;5030629;28;20017;-56
2021/12/22 14:26:30;;;;;;;31.90;22.67;;;;;;;;;;5032082;28;20420;-56
2021/12/22 14:29:04;;;;;;;32.40;20.70;;;;;;;;;;5030521;28;20503;-56
2021/12/22 14:31:29;;;;;;;26.90;20.88;;;;;;;;;;5031568;28;20039;-57
2021/12/22 14:34:04;;;;;;;31.42;22.23;;;;;;;;;;5029340;28;20104;-56
2021/12/22 14:36:42;;;;;;;29.40;19.52;;;;;;;;;;5030909;28;20453;-57
2021/12/22 14:39:08;;;;;;;27.90;20.63;;;;;;;;;;5030264;28;20144;-56
2021/12/22 14:41:33;;;;;;;23.33;17.25;;;;;;;;;;5031662;28;20487;-57
2021/12/22 14:43:58;;;;;;;26.65;20.77;;;;;;;;;;5030524;28;20032;-57